createdAt,value
2017-07-04T00:01:49.656Z,13.40
2017-07-04T00:04:17.164Z,10.40
2017-07-04T00:06:44.618Z,10.47
2017-07-04T00:09:12.068Z,9.70
2017-07-04T00:11:39.561Z,10.67
2017-07-04T00:14:07.015Z,8.47
2017-07-04T00:16:34.533Z,10.60
2017-07-04T00:19:01.986Z,8.33
2017-07-04T00:21:29.444Z,10.00
2017-07-04T00:23:56.935Z,9.63
2017-07-04T00:26:24.440Z,10.00
2017-07-04T00:28:51.907Z,10.60
2017-07-04T00:31:19.365Z,11.37
2017-07-04T00:33:46.877Z,13.03
2017-07-04T00:36:14.343Z,10.43
2017-07-04T00:38:41.802Z,12.13
2017-07-04T00:41:09.302Z,10.70
2017-07-04T00:43:36.761Z,9.30
2017-07-04T00:46:04.217Z,11.53
2017-07-04T00:48:31.712Z,8.63
2017-07-04T00:50:59.174Z,9.17
2017-07-04T00:53:26.663Z,7.93
2017-07-04T00:55:54.122Z,14.80
2017-07-04T00:58:21.587Z,13.40
2017-07-04T01:00:49.096Z,6.93
2017-07-04T01:03:16.552Z,16.80
2017-07-04T01:05:44.009Z,8.93
2017-07-04T01:08:11.518Z,9.43
2017-07-04T01:10:39.700Z,11.37
2017-07-04T01:13:07.163Z,10.10
2017-07-04T01:15:34.682Z,12.03
2017-07-04T01:18:02.134Z,7.50
2017-07-04T01:20:29.603Z,10.47
2017-07-04T01:22:57.110Z,8.00
2017-07-04T01:25:24.570Z,9.37
2017-07-04T01:27:52.028Z,11.23
2017-07-04T01:30:19.544Z,8.97
2017-07-04T01:32:47.968Z,12.33
2017-07-04T01:35:15.502Z,12.00
2017-07-04T01:37:43.007Z,12.23
2017-07-04T01:40:10.461Z,8.23
2017-07-04T01:42:37.906Z,7.03
2017-07-04T01:45:05.417Z,12.30
2017-07-04T01:47:32.892Z,13.30
2017-07-04T01:50:00.354Z,10.10
2017-07-04T01:52:27.843Z,9.97
2017-07-04T01:54:55.299Z,9.93
2017-07-04T01:57:22.757Z,11.30
2017-07-04T01:59:50.256Z,9.43
2017-07-04T02:02:17.718Z,11.00
2017-07-04T02:04:45.170Z,7.83
2017-07-04T02:07:12.673Z,11.20
2017-07-04T02:09:40.128Z,10.60
2017-07-04T02:12:07.582Z,11.30
2017-07-04T02:14:35.072Z,9.40
2017-07-04T02:17:02.623Z,9.27
2017-07-04T02:19:30.114Z,8.80
2017-07-04T02:21:57.619Z,12.03
2017-07-04T02:24:25.126Z,11.03
2017-07-04T02:26:52.593Z,12.93
2017-07-04T02:29:20.098Z,12.83
2017-07-04T02:31:47.559Z,13.60
2017-07-04T02:34:15.024Z,16.40
2017-07-04T02:36:42.515Z,12.33
2017-07-04T02:39:09.975Z,14.80
2017-07-04T02:41:37.466Z,13.27
2017-07-04T02:44:04.934Z,13.70
2017-07-04T02:46:32.445Z,13.43
2017-07-04T02:48:59.901Z,13.20
2017-07-04T02:51:27.361Z,12.57
2017-07-04T02:53:54.862Z,9.80
2017-07-04T02:56:22.318Z,14.33
2017-07-04T02:58:49.770Z,11.77
2017-07-04T03:01:17.270Z,14.60
2017-07-04T03:03:44.726Z,19.93
2017-07-04T03:06:12.238Z,11.83
2017-07-04T03:08:39.698Z,13.13
2017-07-04T03:11:07.158Z,9.97
2017-07-04T03:13:34.662Z,9.90
2017-07-04T03:16:02.125Z,14.30
2017-07-04T03:18:29.585Z,11.80
2017-07-04T03:20:57.097Z,11.13
2017-07-04T03:23:24.642Z,12.23
2017-07-04T03:25:52.093Z,14.37
2017-07-04T03:28:19.605Z,10.30
2017-07-04T03:30:47.114Z,13.90
2017-07-04T03:33:14.583Z,15.73
2017-07-04T03:35:42.083Z,13.33
2017-07-04T03:38:09.598Z,9.87
2017-07-04T03:40:37.053Z,9.43
2017-07-04T03:43:04.510Z,12.20
2017-07-04T03:45:32.003Z,10.60
2017-07-04T03:47:59.490Z,13.67
2017-07-04T03:50:26.991Z,11.57
2017-07-04T03:52:54.453Z,10.33
2017-07-04T03:55:21.955Z,11.53
2017-07-04T03:57:49.452Z,14.67
2017-07-04T04:00:16.912Z,12.63
2017-07-04T04:02:44.374Z,14.50
2017-07-04T04:05:11.870Z,13.87
2017-07-04T04:07:39.365Z,10.00
2017-07-04T04:10:06.871Z,10.33
2017-07-04T04:12:34.325Z,15.30
2017-07-04T04:15:01.785Z,15.50
2017-07-04T04:17:29.281Z,14.87
2017-07-04T04:19:56.735Z,10.73
2017-07-04T04:22:24.188Z,12.73
2017-07-04T04:24:51.694Z,11.73
2017-07-04T04:27:19.166Z,14.20
2017-07-04T04:29:46.630Z,12.67
2017-07-04T04:32:14.138Z,11.47
2017-07-04T04:34:41.605Z,15.20
2017-07-04T04:37:09.058Z,10.47
2017-07-04T04:39:36.555Z,12.93
2017-07-04T04:42:04.059Z,10.27
2017-07-04T04:44:31.526Z,13.47
2017-07-04T04:46:58.981Z,16.80
2017-07-04T04:49:26.478Z,19.30
2017-07-04T04:51:53.989Z,18.50
2017-07-04T04:54:21.457Z,12.13
2017-07-04T04:56:48.927Z,15.53
2017-07-04T04:59:16.436Z,14.30
2017-07-04T05:01:43.930Z,13.73
2017-07-04T05:04:11.399Z,14.00
2017-07-04T05:06:38.898Z,18.13
2017-07-04T05:09:06.364Z,23.23
2017-07-04T05:11:33.826Z,13.40
2017-07-04T05:14:01.329Z,18.77
2017-07-04T05:16:28.805Z,15.00
2017-07-04T05:18:56.281Z,17.53
2017-07-04T05:21:23.786Z,15.00
2017-07-04T05:23:51.251Z,20.77
2017-07-04T05:26:18.711Z,14.10
2017-07-04T05:28:46.206Z,15.77
2017-07-04T05:31:13.677Z,10.07
2017-07-04T05:33:41.190Z,15.30
2017-07-04T05:36:08.641Z,17.50
2017-07-04T05:38:36.108Z,19.27
2017-07-04T05:41:03.613Z,14.43
2017-07-04T05:43:31.069Z,11.90
2017-07-04T05:45:58.535Z,11.53
2017-07-04T05:48:26.046Z,16.77
2017-07-04T05:50:53.504Z,14.30
2017-07-04T05:53:20.972Z,11.47
2017-07-04T05:55:48.476Z,14.07
2017-07-04T05:58:15.937Z,15.23
2017-07-04T06:00:43.451Z,11.63
2017-07-04T06:03:10.913Z,16.33
2017-07-04T06:05:38.382Z,18.87
2017-07-04T06:08:05.878Z,12.70
2017-07-04T06:10:33.347Z,14.57
2017-07-04T06:13:00.849Z,14.10
2017-07-04T06:15:28.305Z,19.53
2017-07-04T06:17:55.762Z,13.00
2017-07-04T06:20:23.281Z,14.00
2017-07-04T06:22:50.743Z,15.30
2017-07-04T06:25:18.201Z,13.27
2017-07-04T06:27:45.702Z,10.93
2017-07-04T06:30:13.152Z,11.97
2017-07-04T06:32:40.655Z,11.23
2017-07-04T06:35:08.110Z,16.20
2017-07-04T06:37:35.569Z,11.63
2017-07-04T06:40:03.071Z,9.60
2017-07-04T06:42:30.536Z,11.40
2017-07-04T06:44:57.982Z,7.33
2017-07-04T06:47:25.474Z,8.67
2017-07-04T06:49:52.932Z,5.87
2017-07-04T06:52:20.442Z,6.57
2017-07-04T06:54:47.898Z,5.03
2017-07-04T06:57:15.398Z,5.37
2017-07-04T06:59:42.854Z,5.13
2017-07-04T07:02:10.304Z,4.90
2017-07-04T07:04:37.801Z,5.90
2017-07-04T07:07:05.246Z,6.90
2017-07-04T07:09:32.694Z,7.80
2017-07-04T07:12:00.181Z,7.10
2017-07-04T07:14:27.686Z,6.00
2017-07-04T07:16:55.153Z,4.90
2017-07-04T07:19:22.607Z,4.80
2017-07-04T07:21:50.101Z,9.80
2017-07-04T07:24:17.554Z,8.30
2017-07-04T07:26:45.006Z,5.87
2017-07-04T07:29:12.533Z,4.73
2017-07-04T07:31:39.985Z,3.70
2017-07-04T07:34:07.455Z,10.83
2017-07-04T07:36:34.939Z,4.67
2017-07-04T07:39:02.409Z,5.80
2017-07-04T07:41:29.915Z,4.60
2017-07-04T07:43:57.381Z,2.80
2017-07-04T07:46:24.853Z,4.53
2017-07-04T07:48:52.344Z,4.60
2017-07-04T07:51:19.801Z,4.07
2017-07-04T07:53:47.245Z,6.77
2017-07-04T07:56:14.729Z,6.97
2017-07-04T07:58:42.181Z,4.60
2017-07-04T08:01:09.635Z,4.90
2017-07-04T08:03:37.129Z,4.27
2017-07-04T08:06:04.590Z,4.97
2017-07-04T08:08:32.044Z,4.00
2017-07-04T08:10:59.557Z,9.00
2017-07-04T08:13:27.009Z,3.83
2017-07-04T08:15:54.468Z,6.20
2017-07-04T08:18:21.961Z,4.40
2017-07-04T08:20:49.469Z,8.10
2017-07-04T08:23:16.941Z,3.90
2017-07-04T08:25:44.402Z,3.40
2017-07-04T08:28:11.893Z,8.40
2017-07-04T08:30:39.347Z,8.60
2017-07-04T08:33:06.802Z,4.23
2017-07-04T08:35:34.314Z,7.10
2017-07-04T08:38:01.781Z,6.50
2017-07-04T08:40:29.241Z,9.87
2017-07-04T08:42:56.744Z,5.70
2017-07-04T08:45:24.203Z,5.33
2017-07-04T08:47:51.654Z,4.77
2017-07-04T08:50:19.158Z,4.40
2017-07-04T08:52:46.609Z,4.23
2017-07-04T08:55:14.056Z,4.37
2017-07-04T08:57:41.562Z,3.67
2017-07-04T09:00:09.014Z,9.50
2017-07-04T09:02:36.470Z,9.07
2017-07-04T09:05:03.969Z,4.40
2017-07-04T09:07:31.444Z,5.87
2017-07-04T09:09:58.893Z,3.90
2017-07-04T09:12:26.400Z,4.00
2017-07-04T09:14:53.856Z,4.90
2017-07-04T09:17:21.311Z,4.50
2017-07-04T09:19:48.797Z,3.37
2017-07-04T09:22:16.241Z,3.60
2017-07-04T09:24:43.749Z,7.07
2017-07-04T09:27:11.205Z,3.33
2017-07-04T09:29:38.661Z,3.73
2017-07-04T09:32:06.166Z,5.03
2017-07-04T09:34:33.622Z,4.03
2017-07-04T09:37:01.097Z,3.00
2017-07-04T09:39:28.620Z,4.90
2017-07-04T09:41:56.070Z,4.70
2017-07-04T09:44:23.529Z,8.90
2017-07-04T09:46:51.034Z,11.53
2017-07-04T09:49:18.493Z,6.43
2017-07-04T09:51:45.938Z,3.60
2017-07-04T09:54:13.446Z,5.70
2017-07-04T09:56:40.898Z,6.13
2017-07-04T09:59:08.363Z,4.37
2017-07-04T10:01:35.858Z,4.70
2017-07-04T10:04:03.310Z,6.00
2017-07-04T10:06:30.775Z,3.70
2017-07-04T10:08:58.291Z,4.63
2017-07-04T10:11:25.746Z,3.67
2017-07-04T10:13:53.210Z,2.90
2017-07-04T10:16:20.702Z,5.07
2017-07-04T10:18:48.197Z,6.63
2017-07-04T10:21:15.653Z,3.53
2017-07-04T10:23:43.106Z,5.13
2017-07-04T10:26:10.598Z,3.37
2017-07-04T10:28:38.060Z,4.97
2017-07-04T10:31:05.558Z,5.67
2017-07-04T10:33:33.011Z,4.80
2017-07-04T10:36:00.521Z,4.00
2017-07-04T10:38:27.978Z,3.77
2017-07-04T10:40:55.449Z,5.97
2017-07-04T10:43:22.948Z,3.90
2017-07-04T10:45:50.450Z,6.07
2017-07-04T10:48:17.966Z,4.30
2017-07-04T10:50:45.422Z,4.50
2017-07-04T10:53:12.883Z,3.37
2017-07-04T10:55:40.378Z,4.07
2017-07-04T10:58:07.847Z,7.07
2017-07-04T11:00:35.297Z,7.77
2017-07-04T11:03:02.903Z,3.83
2017-07-04T11:05:30.350Z,4.47
2017-07-04T11:07:57.806Z,4.53
2017-07-04T11:10:25.294Z,4.40
2017-07-04T11:12:52.747Z,7.70
2017-07-04T11:15:20.248Z,3.53
2017-07-04T11:17:47.705Z,6.87
2017-07-04T11:20:15.167Z,3.70
2017-07-04T11:22:42.657Z,3.50
2017-07-04T11:25:10.115Z,5.33
2017-07-04T11:27:37.610Z,5.97
2017-07-04T11:30:05.065Z,3.47
2017-07-04T11:32:32.525Z,4.40
2017-07-04T11:35:00.023Z,5.80
2017-07-04T11:37:27.481Z,6.47
2017-07-04T11:39:54.945Z,3.23
2017-07-04T11:42:22.455Z,4.97
2017-07-04T11:44:49.919Z,3.43
2017-07-04T11:47:17.488Z,4.83
2017-07-04T11:49:44.995Z,5.40
2017-07-04T11:52:12.443Z,3.30
2017-07-04T11:54:39.898Z,2.67
2017-07-04T11:57:07.394Z,5.13
2017-07-04T11:59:34.853Z,5.70
2017-07-04T12:02:02.302Z,2.70
2017-07-04T12:04:29.814Z,2.60
2017-07-04T12:06:57.276Z,5.00
2017-07-04T12:09:24.737Z,3.43
2017-07-04T12:11:52.238Z,5.30
2017-07-04T12:14:19.693Z,2.60
2017-07-04T12:16:47.143Z,3.43
2017-07-04T12:19:14.650Z,3.27
2017-07-04T12:21:42.117Z,3.07
2017-07-04T12:24:09.579Z,5.63
2017-07-04T12:26:37.062Z,4.60
2017-07-04T12:29:04.567Z,3.30
2017-07-04T12:31:32.014Z,7.27
2017-07-04T12:33:59.469Z,3.90
2017-07-04T12:36:26.958Z,2.27
2017-07-04T12:38:54.413Z,4.20
2017-07-04T12:41:21.873Z,2.33
2017-07-04T12:43:49.374Z,3.10
2017-07-04T12:46:16.847Z,2.67
2017-07-04T12:48:44.313Z,3.40
2017-07-04T12:51:11.828Z,4.80
2017-07-04T12:53:39.290Z,3.07
2017-07-04T12:56:06.763Z,2.77
2017-07-04T12:58:34.270Z,5.63
2017-07-04T13:01:01.723Z,3.70
2017-07-04T13:03:29.186Z,3.50
2017-07-04T13:05:56.690Z,2.27
2017-07-04T13:08:24.142Z,4.13
2017-07-04T13:10:51.636Z,2.50
2017-07-04T13:13:19.127Z,3.93
2017-07-04T13:15:46.573Z,2.67
2017-07-04T13:18:14.061Z,2.60
2017-07-04T13:20:41.511Z,2.87
2017-07-04T13:23:08.980Z,4.20
2017-07-04T13:25:36.497Z,4.77
2017-07-04T13:28:03.959Z,3.33
2017-07-04T13:30:31.842Z,3.50
2017-07-04T13:32:59.351Z,3.20
2017-07-04T13:35:26.868Z,4.40
2017-07-04T13:37:54.334Z,2.80
2017-07-04T13:40:21.779Z,4.77
2017-07-04T13:42:49.286Z,4.57
2017-07-04T13:45:16.738Z,2.40
2017-07-04T13:47:44.211Z,2.47
2017-07-04T13:50:11.714Z,2.77
2017-07-04T13:52:39.174Z,4.93
2017-07-04T13:55:06.645Z,5.20
2017-07-04T13:57:34.154Z,3.70
2017-07-04T14:00:01.601Z,5.57
2017-07-04T14:02:29.054Z,3.43
2017-07-04T14:04:56.552Z,3.53
2017-07-04T14:07:24.019Z,2.67
2017-07-04T14:09:51.530Z,4.43
2017-07-04T14:12:18.994Z,2.47
2017-07-04T14:14:46.454Z,2.87
2017-07-04T14:17:13.946Z,3.47
2017-07-04T14:19:41.399Z,7.63
2017-07-04T14:22:08.896Z,2.73
2017-07-04T14:24:36.362Z,2.30
2017-07-04T14:27:03.875Z,3.20
2017-07-04T14:29:31.370Z,2.57
2017-07-04T14:31:58.825Z,3.33
2017-07-04T14:34:26.283Z,2.87
2017-07-04T14:36:53.775Z,3.07
2017-07-04T14:39:21.229Z,3.37
2017-07-04T14:41:48.731Z,6.50
2017-07-04T14:44:16.238Z,3.90
2017-07-04T14:46:43.862Z,8.43
2017-07-04T14:49:11.339Z,2.60
2017-07-04T14:51:38.830Z,3.10
2017-07-04T14:54:06.338Z,2.10
2017-07-04T14:56:33.794Z,2.37
2017-07-04T14:59:01.259Z,1.83
2017-07-04T15:01:28.766Z,4.50
2017-07-04T15:03:56.243Z,3.67
2017-07-04T15:06:23.695Z,5.00
2017-07-04T15:08:51.202Z,3.27
2017-07-04T15:11:18.644Z,2.13
2017-07-04T15:13:46.105Z,2.53
2017-07-04T15:16:13.614Z,3.33
2017-07-04T15:18:41.062Z,2.23
2017-07-04T15:21:08.559Z,2.43
2017-07-04T15:23:36.012Z,2.50
2017-07-04T15:26:03.472Z,2.13
2017-07-04T15:28:30.982Z,4.47
2017-07-04T15:30:58.446Z,4.23
2017-07-04T15:33:25.903Z,3.73
2017-07-04T15:35:53.412Z,1.80
2017-07-04T15:38:20.871Z,2.83
2017-07-04T15:40:48.331Z,2.33
2017-07-04T15:43:15.854Z,4.93
2017-07-04T15:45:43.318Z,3.23
2017-07-04T15:48:11.495Z,2.90
2017-07-04T15:50:38.993Z,4.27
2017-07-04T15:53:06.457Z,3.43
2017-07-04T15:55:33.914Z,4.03
2017-07-04T15:58:01.417Z,2.63
2017-07-04T16:00:28.878Z,6.50
2017-07-04T16:02:56.571Z,6.50
2017-07-04T16:05:24.067Z,6.37
2017-07-04T16:07:51.523Z,2.53
2017-07-04T16:10:19.207Z,2.07
2017-07-04T16:12:46.662Z,2.33
2017-07-04T16:15:14.124Z,2.33
2017-07-04T16:17:41.630Z,2.90
2017-07-04T16:20:09.517Z,3.37
2017-07-04T16:22:36.966Z,4.10
2017-07-04T16:25:04.711Z,1.60
2017-07-04T16:27:32.483Z,2.30
2017-07-04T16:29:59.993Z,1.57
2017-07-04T16:32:27.446Z,1.73
2017-07-04T16:34:54.901Z,3.10
2017-07-04T16:37:22.428Z,2.30
2017-07-04T16:39:50.440Z,2.90
2017-07-04T16:42:18.210Z,2.07
2017-07-04T16:44:45.976Z,4.83
2017-07-04T16:47:13.444Z,4.40
2017-07-04T16:49:40.955Z,2.20
2017-07-04T16:52:09.003Z,3.40
2017-07-04T16:54:36.458Z,2.40
2017-07-04T16:57:03.965Z,4.40
2017-07-04T16:59:31.429Z,2.10
2017-07-04T17:01:58.879Z,2.23
2017-07-04T17:04:26.402Z,6.60
2017-07-04T17:06:53.858Z,3.70
2017-07-04T17:09:21.324Z,2.40
2017-07-04T17:11:48.823Z,5.70
2017-07-04T17:14:17.122Z,1.93
2017-07-04T17:16:44.588Z,2.90
2017-07-04T17:19:12.093Z,2.60
2017-07-04T17:21:39.552Z,3.00
2017-07-04T17:24:07.010Z,5.83
2017-07-04T17:26:34.510Z,3.80
2017-07-04T17:29:01.961Z,3.43
2017-07-04T17:31:29.413Z,2.60
2017-07-04T17:33:57.631Z,2.40
2017-07-04T17:36:25.079Z,3.57
2017-07-04T17:38:52.534Z,4.47
2017-07-04T17:41:20.046Z,3.73
2017-07-04T17:43:47.499Z,2.33
2017-07-04T17:46:14.959Z,2.47
2017-07-04T17:48:42.492Z,7.33
2017-07-04T17:51:09.953Z,4.50
2017-07-04T17:53:37.408Z,6.43
2017-07-04T17:56:04.919Z,2.80
2017-07-04T17:58:32.391Z,2.50
2017-07-04T18:00:59.856Z,2.67
2017-07-04T18:03:27.354Z,5.40
2017-07-04T18:05:54.826Z,2.70
2017-07-04T18:08:22.296Z,3.87
2017-07-04T18:10:50.183Z,5.20
2017-07-04T18:13:17.673Z,4.60
2017-07-04T18:15:45.167Z,5.57
2017-07-04T18:18:12.666Z,2.50
2017-07-04T18:20:40.131Z,3.60
2017-07-04T18:23:07.638Z,3.87
2017-07-04T18:25:35.095Z,7.10
2017-07-04T18:28:02.598Z,5.50
2017-07-04T18:30:30.053Z,2.63
2017-07-04T18:32:57.772Z,2.40
2017-07-04T18:35:25.306Z,3.90
2017-07-04T18:37:52.764Z,7.20
2017-07-04T18:40:20.215Z,4.27
2017-07-04T18:42:47.719Z,14.60
2017-07-04T18:45:15.202Z,4.63
2017-07-04T18:47:42.711Z,2.90
2017-07-04T18:50:10.183Z,16.43
2017-07-04T18:52:37.648Z,5.37
2017-07-04T18:55:05.171Z,4.90
2017-07-04T18:57:32.644Z,11.63
2017-07-04T19:00:00.101Z,4.90
2017-07-04T19:02:27.604Z,7.20
2017-07-04T19:04:55.072Z,2.83
2017-07-04T19:07:22.524Z,3.10
2017-07-04T19:09:50.036Z,3.80
2017-07-04T19:12:17.503Z,4.27
2017-07-04T19:14:44.974Z,3.93
2017-07-04T19:17:12.486Z,5.83
2017-07-04T19:19:39.942Z,6.23
2017-07-04T19:22:07.413Z,15.83
2017-07-04T19:24:34.952Z,19.37
2017-07-04T19:27:02.469Z,7.63
2017-07-04T19:29:29.928Z,11.93
2017-07-04T19:31:57.389Z,6.77
2017-07-04T19:34:24.908Z,4.13
2017-07-04T19:36:52.399Z,5.10
2017-07-04T19:39:19.853Z,10.63
2017-07-04T19:41:47.350Z,15.90
2017-07-04T19:44:14.819Z,7.47
2017-07-04T19:46:42.275Z,7.57
2017-07-04T19:49:09.777Z,4.10
2017-07-04T19:51:37.243Z,9.40
2017-07-04T19:54:04.711Z,7.50
2017-07-04T19:56:32.217Z,6.87
2017-07-04T19:58:59.661Z,5.93
2017-07-04T20:01:27.172Z,5.43
2017-07-04T20:03:54.637Z,7.70
2017-07-04T20:06:23.030Z,5.63
2017-07-04T20:08:50.491Z,8.80
2017-07-04T20:11:17.953Z,8.30
2017-07-04T20:13:45.437Z,4.47
2017-07-04T20:16:12.956Z,10.40
2017-07-04T20:18:40.423Z,6.13
2017-07-04T20:21:07.877Z,5.83
2017-07-04T20:23:35.399Z,10.03
2017-07-04T20:26:02.902Z,7.90
2017-07-04T20:28:30.355Z,8.07
2017-07-04T20:30:58.130Z,5.50
2017-07-04T20:33:25.951Z,9.67
2017-07-04T20:35:53.430Z,7.67
2017-07-04T20:38:20.991Z,10.20
2017-07-04T20:40:48.891Z,12.93
2017-07-04T20:43:16.368Z,10.33
2017-07-04T20:45:44.065Z,11.23
2017-07-04T20:48:11.520Z,12.57
2017-07-04T20:50:38.994Z,10.20
2017-07-04T20:53:06.498Z,10.57
2017-07-04T20:55:33.954Z,8.93
2017-07-04T20:58:01.413Z,7.87
2017-07-04T21:00:28.902Z,10.47
2017-07-04T21:02:56.375Z,8.43
2017-07-04T21:05:24.027Z,12.33
2017-07-04T21:07:51.543Z,13.93
2017-07-04T21:10:18.998Z,8.60
2017-07-04T21:12:46.496Z,8.33
2017-07-04T21:15:13.950Z,10.27
2017-07-04T21:17:41.458Z,7.23
2017-07-04T21:20:08.922Z,8.67
2017-07-04T21:22:36.378Z,9.03
2017-07-04T21:25:03.884Z,17.43
2017-07-04T21:27:31.347Z,10.70
2017-07-04T21:29:58.866Z,11.03
2017-07-04T21:32:26.313Z,6.70
2017-07-04T21:34:53.806Z,7.77
2017-07-04T21:37:21.259Z,8.07
2017-07-04T21:39:48.717Z,9.50
2017-07-04T21:42:16.571Z,8.57
2017-07-04T21:44:44.039Z,13.30
2017-07-04T21:47:11.495Z,9.17
2017-07-04T21:49:38.970Z,14.10
2017-07-04T21:52:06.435Z,10.77
2017-07-04T21:54:33.974Z,11.30
2017-07-04T21:57:01.433Z,10.50
2017-07-04T21:59:28.896Z,13.87
2017-07-04T22:01:56.376Z,9.13
2017-07-04T22:04:23.839Z,12.63
2017-07-04T22:06:51.339Z,9.10
2017-07-04T22:09:18.794Z,13.60
2017-07-04T22:11:46.241Z,9.67
2017-07-04T22:14:13.728Z,8.60
2017-07-04T22:16:41.188Z,8.07
2017-07-04T22:19:08.652Z,8.30
2017-07-04T22:21:36.127Z,8.63
2017-07-04T22:24:03.613Z,8.83
2017-07-04T22:26:31.063Z,7.93
2017-07-04T22:28:58.514Z,9.20
2017-07-04T22:31:25.997Z,9.47
2017-07-04T22:33:53.460Z,7.53
2017-07-04T22:36:20.945Z,11.47
2017-07-04T22:38:48.403Z,7.47
2017-07-04T22:41:15.877Z,11.70
2017-07-04T22:43:43.326Z,7.63
2017-07-04T22:46:10.808Z,7.33
2017-07-04T22:48:38.442Z,7.40
2017-07-04T22:51:05.901Z,13.50
2017-07-04T22:53:33.354Z,8.30
2017-07-04T22:56:00.827Z,9.63
2017-07-04T22:58:28.435Z,14.50
2017-07-04T23:00:55.892Z,17.17
2017-07-04T23:03:23.347Z,11.10
2017-07-04T23:05:50.821Z,8.20
2017-07-04T23:08:18.286Z,10.40
2017-07-04T23:10:46.002Z,7.40
2017-07-04T23:13:13.466Z,10.83
2017-07-04T23:15:41.569Z,12.17
2017-07-04T23:18:09.028Z,11.17
2017-07-04T23:20:36.577Z,13.60
2017-07-04T23:23:04.083Z,7.33
2017-07-04T23:25:31.532Z,8.90
2017-07-04T23:27:58.987Z,8.73
2017-07-04T23:30:26.488Z,15.30
2017-07-04T23:32:53.952Z,11.43
2017-07-04T23:35:21.416Z,12.20
2017-07-04T23:37:48.898Z,12.83
2017-07-04T23:40:16.365Z,7.13
2017-07-04T23:42:43.839Z,9.20
2017-07-04T23:45:11.720Z,15.50
2017-07-04T23:47:39.187Z,10.53
2017-07-04T23:50:06.641Z,7.00
2017-07-04T23:52:34.115Z,7.90
2017-07-04T23:55:01.562Z,8.20
2017-07-04T23:57:29.054Z,9.83
2017-07-04T23:59:56.521Z,13.20
